sensor_id;sensor_type;location;lat;lon;timestamp;P1;durP1;ratioP1;P2;durP2;ratioP2
51782;SDS011;37845;53.196;5.638;2023-02-28T00:01:29;14.15;;;6.15;;
51782;SDS011;37845;53.196;5.638;2023-02-28T00:03:55;19.23;;;6.57;;
51782;SDS011;37845;53.196;5.638;2023-02-28T00:06:21;18.50;;;6.57;;
51782;SDS011;37845;53.196;5.638;2023-02-28T00:08:49;26.15;;;7.38;;
51782;SDS011;37845;53.196;5.638;2023-02-28T00:11:15;22.55;;;7.47;;
51782;SDS011;37845;53.196;5.638;2023-02-28T00:13:42;14.98;;;5.72;;
51782;SDS011;37845;53.196;5.638;2023-02-28T00:16:12;24.23;;;5.57;;
51782;SDS011;37845;53.196;5.638;2023-02-28T00:18:43;19.70;;;5.78;;
51782;SDS011;37845;53.196;5.638;2023-02-28T00:21:09;15.15;;;6.45;;
51782;SDS011;37845;53.196;5.638;2023-02-28T00:23:35;12.00;;;5.75;;
51782;SDS011;37845;53.196;5.638;2023-02-28T00:28:26;15.55;;;6.72;;
51782;SDS011;37845;53.196;5.638;2023-02-28T00:30:52;15.13;;;5.72;;
51782;SDS011;37845;53.196;5.638;2023-02-28T00:33:18;26.45;;;7.07;;
51782;SDS011;37845;53.196;5.638;2023-02-28T00:35:44;33.65;;;6.43;;
51782;SDS011;37845;53.196;5.638;2023-02-28T00:38:13;15.15;;;7.22;;
51782;SDS011;37845;53.196;5.638;2023-02-28T00:40:40;23.88;;;7.13;;
51782;SDS011;37845;53.196;5.638;2023-02-28T00:43:05;21.48;;;6.70;;
51782;SDS011;37845;53.196;5.638;2023-02-28T00:45:31;25.95;;;7.10;;
51782;SDS011;37845;53.196;5.638;2023-02-28T00:47:57;17.55;;;7.18;;
51782;SDS011;37845;53.196;5.638;2023-02-28T00:50:22;15.05;;;6.78;;
51782;SDS011;37845;53.196;5.638;2023-02-28T00:52:48;29.50;;;8.27;;
51782;SDS011;37845;53.196;5.638;2023-02-28T00:55:14;30.83;;;7.78;;
51782;SDS011;37845;53.196;5.638;2023-02-28T00:57:40;14.88;;;8.00;;
51782;SDS011;37845;53.196;5.638;2023-02-28T01:00:06;30.77;;;6.15;;
51782;SDS011;37845;53.196;5.638;2023-02-28T01:02:32;11.73;;;6.30;;
51782;SDS011;37845;53.196;5.638;2023-02-28T01:04:58;13.93;;;5.38;;
51782;SDS011;37845;53.196;5.638;2023-02-28T01:07:24;17.52;;;6.20;;
51782;SDS011;37845;53.196;5.638;2023-02-28T01:09:50;12.25;;;5.60;;
51782;SDS011;37845;53.196;5.638;2023-02-28T01:12:16;12.55;;;5.75;;
51782;SDS011;37845;53.196;5.638;2023-02-28T01:14:41;15.07;;;5.70;;
51782;SDS011;37845;53.196;5.638;2023-02-28T01:17:07;11.80;;;4.85;;
51782;SDS011;37845;53.196;5.638;2023-02-28T01:22:05;13.82;;;5.07;;
51782;SDS011;37845;53.196;5.638;2023-02-28T01:24:32;17.55;;;6.05;;
51782;SDS011;37845;53.196;5.638;2023-02-28T01:26:58;27.63;;;7.13;;
51782;SDS011;37845;53.196;5.638;2023-02-28T01:29:23;32.67;;;5.43;;
51782;SDS011;37845;53.196;5.638;2023-02-28T01:31:49;22.80;;;5.65;;
51782;SDS011;37845;53.196;5.638;2023-02-28T01:34:15;24.73;;;5.72;;
51782;SDS011;37845;53.196;5.638;2023-02-28T01:36:44;24.67;;;7.28;;
51782;SDS011;37845;53.196;5.638;2023-02-28T01:39:10;23.00;;;7.18;;
51782;SDS011;37845;53.196;5.638;2023-02-28T01:41:35;13.35;;;4.60;;
51782;SDS011;37845;53.196;5.638;2023-02-28T01:44:03;24.73;;;5.47;;
51782;SDS011;37845;53.196;5.638;2023-02-28T01:46:32;9.32;;;5.90;;
51782;SDS011;37845;53.196;5.638;2023-02-28T01:49:04;18.77;;;7.20;;
51782;SDS011;37845;53.196;5.638;2023-02-28T01:51:43;18.15;;;5.22;;
51782;SDS011;37845;53.196;5.638;2023-02-28T01:54:26;8.30;;;5.22;;
51782;SDS011;37845;53.196;5.638;2023-02-28T01:57:04;22.83;;;9.82;;
51782;SDS011;37845;53.196;5.638;2023-02-28T01:59:38;11.25;;;4.78;;
51782;SDS011;37845;53.196;5.638;2023-02-28T02:02:21;10.13;;;5.57;;
51782;SDS011;37845;53.196;5.638;2023-02-28T02:05:23;14.15;;;5.30;;
51782;SDS011;37845;53.196;5.638;2023-02-28T02:07:44;42.10;;;5.75;;
51782;SDS011;37845;53.196;5.638;2023-02-28T02:10:19;12.57;;;4.88;;
51782;SDS011;37845;53.196;5.638;2023-02-28T02:27:23;21.13;;;6.32;;
51782;SDS011;37845;53.196;5.638;2023-02-28T02:39:02;14.70;;;4.80;;
51782;SDS011;37845;53.196;5.638;2023-02-28T02:42:03;22.90;;;5.53;;
51782;SDS011;37845;53.196;5.638;2023-02-28T02:44:58;18.73;;;4.80;;
51782;SDS011;37845;53.196;5.638;2023-02-28T02:47:25;24.45;;;6.82;;
51782;SDS011;37845;53.196;5.638;2023-02-28T02:49:55;9.50;;;5.18;;
51782;SDS011;37845;53.196;5.638;2023-02-28T02:55:28;7.35;;;4.30;;
51782;SDS011;37845;53.196;5.638;2023-02-28T02:58:00;11.65;;;4.93;;
51782;SDS011;37845;53.196;5.638;2023-02-28T03:00:36;12.35;;;5.80;;
51782;SDS011;37845;53.196;5.638;2023-02-28T03:03:05;17.48;;;5.30;;
51782;SDS011;37845;53.196;5.638;2023-02-28T03:05:41;15.18;;;6.57;;
51782;SDS011;37845;53.196;5.638;2023-02-28T03:08:12;14.65;;;5.68;;
51782;SDS011;37845;53.196;5.638;2023-02-28T03:10:40;30.38;;;6.47;;
51782;SDS011;37845;53.196;5.638;2023-02-28T03:21:28;18.77;;;6.93;;
51782;SDS011;37845;53.196;5.638;2023-02-28T03:24:17;15.98;;;6.50;;
51782;SDS011;37845;53.196;5.638;2023-02-28T03:26:55;23.30;;;6.40;;
51782;SDS011;37845;53.196;5.638;2023-02-28T03:29:28;9.60;;;5.05;;
51782;SDS011;37845;53.196;5.638;2023-02-28T03:34:50;18.58;;;5.07;;
51782;SDS011;37845;53.196;5.638;2023-02-28T03:37:23;16.33;;;5.40;;
51782;SDS011;37845;53.196;5.638;2023-02-28T03:39:59;8.93;;;4.65;;
51782;SDS011;37845;53.196;5.638;2023-02-28T03:42:32;13.05;;;4.80;;
51782;SDS011;37845;53.196;5.638;2023-02-28T03:45:02;16.33;;;6.07;;
51782;SDS011;37845;53.196;5.638;2023-02-28T03:47:35;15.20;;;5.80;;
51782;SDS011;37845;53.196;5.638;2023-02-28T03:53:01;13.98;;;4.75;;
51782;SDS011;37845;53.196;5.638;2023-02-28T03:55:42;15.57;;;5.10;;
51782;SDS011;37845;53.196;5.638;2023-02-28T03:58:15;15.00;;;4.72;;
51782;SDS011;37845;53.196;5.638;2023-02-28T04:00:56;11.38;;;6.15;;
51782;SDS011;37845;53.196;5.638;2023-02-28T04:03:36;13.23;;;4.60;;
51782;SDS011;37845;53.196;5.638;2023-02-28T04:06:03;20.95;;;6.15;;
51782;SDS011;37845;53.196;5.638;2023-02-28T04:08:32;15.90;;;6.03;;
51782;SDS011;37845;53.196;5.638;2023-02-28T04:11:03;27.08;;;5.75;;
51782;SDS011;37845;53.196;5.638;2023-02-28T04:13:49;17.98;;;5.60;;
51782;SDS011;37845;53.196;5.638;2023-02-28T04:18:41;16.48;;;4.93;;
51782;SDS011;37845;53.196;5.638;2023-02-28T04:21:10;11.90;;;5.70;;
51782;SDS011;37845;53.196;5.638;2023-02-28T04:23:36;17.92;;;4.97;;
51782;SDS011;37845;53.196;5.638;2023-02-28T04:26:03;17.10;;;6.30;;
51782;SDS011;37845;53.196;5.638;2023-02-28T04:28:29;30.67;;;5.97;;
51782;SDS011;37845;53.196;5.638;2023-02-28T04:30:59;9.45;;;3.60;;
51782;SDS011;37845;53.196;5.638;2023-02-28T04:33:26;28.05;;;5.82;;
51782;SDS011;37845;53.196;5.638;2023-02-28T04:35:59;22.13;;;4.50;;
51782;SDS011;37845;53.196;5.638;2023-02-28T04:38:25;10.15;;;3.92;;
51782;SDS011;37845;53.196;5.638;2023-02-28T04:40:50;16.48;;;3.08;;
51782;SDS011;37845;53.196;5.638;2023-02-28T04:43:16;29.92;;;4.47;;
51782;SDS011;37845;53.196;5.638;2023-02-28T04:45:42;29.60;;;3.67;;
51782;SDS011;37845;53.196;5.638;2023-02-28T04:48:07;7.50;;;3.40;;
51782;SDS011;37845;53.196;5.638;2023-02-28T04:50:33;13.82;;;3.35;;
51782;SDS011;37845;53.196;5.638;2023-02-28T04:52:59;13.13;;;3.75;;
51782;SDS011;37845;53.196;5.638;2023-02-28T04:55:25;10.40;;;3.28;;
51782;SDS011;37845;53.196;5.638;2023-02-28T04:57:50;13.32;;;3.45;;
51782;SDS011;37845;53.196;5.638;2023-02-28T05:00:16;8.93;;;2.72;;
51782;SDS011;37845;53.196;5.638;2023-02-28T05:02:42;23.88;;;6.80;;
51782;SDS011;37845;53.196;5.638;2023-02-28T05:05:08;7.95;;;2.30;;
51782;SDS011;37845;53.196;5.638;2023-02-28T05:07:33;11.23;;;3.60;;
51782;SDS011;37845;53.196;5.638;2023-02-28T05:09:59;8.88;;;2.95;;
51782;SDS011;37845;53.196;5.638;2023-02-28T05:12:25;12.82;;;3.05;;
51782;SDS011;37845;53.196;5.638;2023-02-28T05:14:51;22.95;;;3.38;;
51782;SDS011;37845;53.196;5.638;2023-02-28T05:17:16;14.43;;;5.03;;
51782;SDS011;37845;53.196;5.638;2023-02-28T05:19:42;7.30;;;3.88;;
51782;SDS011;37845;53.196;5.638;2023-02-28T05:22:12;37.65;;;3.88;;
51782;SDS011;37845;53.196;5.638;2023-02-28T05:24:40;11.32;;;3.17;;
51782;SDS011;37845;53.196;5.638;2023-02-28T05:27:07;15.23;;;3.10;;
51782;SDS011;37845;53.196;5.638;2023-02-28T05:29:33;26.67;;;3.97;;
51782;SDS011;37845;53.196;5.638;2023-02-28T05:31:59;18.38;;;3.83;;
51782;SDS011;37845;53.196;5.638;2023-02-28T05:34:25;10.43;;;4.38;;
51782;SDS011;37845;53.196;5.638;2023-02-28T05:36:51;10.45;;;3.90;;
51782;SDS011;37845;53.196;5.638;2023-02-28T05:39:16;23.85;;;6.93;;
51782;SDS011;37845;53.196;5.638;2023-02-28T05:41:42;10.85;;;3.30;;
51782;SDS011;37845;53.196;5.638;2023-02-28T05:44:09;41.88;;;5.22;;
51782;SDS011;37845;53.196;5.638;2023-02-28T05:46:35;23.65;;;4.15;;
51782;SDS011;37845;53.196;5.638;2023-02-28T05:49:01;15.48;;;4.18;;
51782;SDS011;37845;53.196;5.638;2023-02-28T05:51:27;21.20;;;5.20;;
51782;SDS011;37845;53.196;5.638;2023-02-28T05:53:53;8.45;;;3.22;;
51782;SDS011;37845;53.196;5.638;2023-02-28T05:56:19;21.05;;;4.25;;
51782;SDS011;37845;53.196;5.638;2023-02-28T05:58:45;10.55;;;3.92;;
51782;SDS011;37845;53.196;5.638;2023-02-28T06:01:22;18.73;;;4.20;;
51782;SDS011;37845;53.196;5.638;2023-02-28T06:04:02;25.50;;;5.25;;
51782;SDS011;37845;53.196;5.638;2023-02-28T06:06:29;11.20;;;3.80;;
51782;SDS011;37845;53.196;5.638;2023-02-28T06:08:55;23.65;;;4.13;;
51782;SDS011;37845;53.196;5.638;2023-02-28T06:11:21;7.47;;;3.17;;
51782;SDS011;37845;53.196;5.638;2023-02-28T06:13:52;22.83;;;3.65;;
51782;SDS011;37845;53.196;5.638;2023-02-28T06:16:20;14.02;;;4.47;;
51782;SDS011;37845;53.196;5.638;2023-02-28T06:21:12;17.00;;;4.47;;
51782;SDS011;37845;53.196;5.638;2023-02-28T06:23:38;8.90;;;3.58;;
51782;SDS011;37845;53.196;5.638;2023-02-28T06:26:04;17.90;;;5.38;;
51782;SDS011;37845;53.196;5.638;2023-02-28T06:28:30;13.07;;;3.42;;
51782;SDS011;37845;53.196;5.638;2023-02-28T06:30:56;16.10;;;3.45;;
51782;SDS011;37845;53.196;5.638;2023-02-28T06:33:22;8.63;;;3.85;;
51782;SDS011;37845;53.196;5.638;2023-02-28T06:35:51;23.88;;;5.25;;
51782;SDS011;37845;53.196;5.638;2023-02-28T06:38:17;27.63;;;4.25;;
51782;SDS011;37845;53.196;5.638;2023-02-28T06:43:09;14.52;;;4.78;;
51782;SDS011;37845;53.196;5.638;2023-02-28T06:45:41;19.30;;;5.43;;
51782;SDS011;37845;53.196;5.638;2023-02-28T06:48:07;22.33;;;4.07;;
51782;SDS011;37845;53.196;5.638;2023-02-28T06:50:33;12.93;;;3.92;;
51782;SDS011;37845;53.196;5.638;2023-02-28T06:52:59;21.38;;;9.25;;
51782;SDS011;37845;53.196;5.638;2023-02-28T06:55:25;22.05;;;9.85;;
51782;SDS011;37845;53.196;5.638;2023-02-28T06:57:51;18.20;;;12.02;;
51782;SDS011;37845;53.196;5.638;2023-02-28T07:00:16;20.73;;;10.77;;
51782;SDS011;37845;53.196;5.638;2023-02-28T07:02:43;23.55;;;12.27;;
51782;SDS011;37845;53.196;5.638;2023-02-28T07:05:08;20.55;;;12.35;;
51782;SDS011;37845;53.196;5.638;2023-02-28T07:07:34;21.60;;;11.88;;
51782;SDS011;37845;53.196;5.638;2023-02-28T07:10:01;20.40;;;12.02;;
51782;SDS011;37845;53.196;5.638;2023-02-28T07:12:27;22.67;;;13.02;;
51782;SDS011;37845;53.196;5.638;2023-02-28T07:14:52;26.40;;;14.60;;
51782;SDS011;37845;53.196;5.638;2023-02-28T07:17:20;28.02;;;14.45;;
51782;SDS011;37845;53.196;5.638;2023-02-28T07:19:46;20.17;;;11.75;;
51782;SDS011;37845;53.196;5.638;2023-02-28T07:22:12;21.90;;;14.52;;
51782;SDS011;37845;53.196;5.638;2023-02-28T07:24:38;33.80;;;14.43;;
51782;SDS011;37845;53.196;5.638;2023-02-28T07:27:03;25.55;;;14.23;;
51782;SDS011;37845;53.196;5.638;2023-02-28T07:29:29;24.25;;;13.73;;
51782;SDS011;37845;53.196;5.638;2023-02-28T07:31:56;28.17;;;16.48;;
51782;SDS011;37845;53.196;5.638;2023-02-28T07:34:22;28.98;;;15.48;;
51782;SDS011;37845;53.196;5.638;2023-02-28T07:36:48;28.98;;;14.23;;
51782;SDS011;37845;53.196;5.638;2023-02-28T07:39:14;26.10;;;13.05;;
51782;SDS011;37845;53.196;5.638;2023-02-28T07:41:39;29.17;;;14.95;;
51782;SDS011;37845;53.196;5.638;2023-02-28T07:44:11;27.05;;;14.07;;
51782;SDS011;37845;53.196;5.638;2023-02-28T07:46:37;22.05;;;14.18;;
51782;SDS011;37845;53.196;5.638;2023-02-28T07:49:03;28.35;;;15.13;;
51782;SDS011;37845;53.196;5.638;2023-02-28T07:51:30;28.63;;;16.83;;
51782;SDS011;37845;53.196;5.638;2023-02-28T07:53:56;26.50;;;14.90;;
51782;SDS011;37845;53.196;5.638;2023-02-28T07:56:22;27.27;;;16.48;;
51782;SDS011;37845;53.196;5.638;2023-02-28T07:58:48;30.10;;;17.20;;
51782;SDS011;37845;53.196;5.638;2023-02-28T08:01:14;33.85;;;19.13;;
51782;SDS011;37845;53.196;5.638;2023-02-28T08:03:40;26.77;;;15.25;;
51782;SDS011;37845;53.196;5.638;2023-02-28T08:06:07;29.88;;;16.90;;
51782;SDS011;37845;53.196;5.638;2023-02-28T08:08:39;28.30;;;16.83;;
51782;SDS011;37845;53.196;5.638;2023-02-28T08:11:05;31.63;;;18.40;;
51782;SDS011;37845;53.196;5.638;2023-02-28T08:13:31;28.42;;;17.10;;
51782;SDS011;37845;53.196;5.638;2023-02-28T08:15:56;34.15;;;18.27;;
51782;SDS011;37845;53.196;5.638;2023-02-28T08:18:22;39.05;;;21.25;;
51782;SDS011;37845;53.196;5.638;2023-02-28T08:23:14;32.15;;;18.30;;
51782;SDS011;37845;53.196;5.638;2023-02-28T08:25:40;39.95;;;20.10;;
51782;SDS011;37845;53.196;5.638;2023-02-28T08:28:06;41.20;;;18.70;;
51782;SDS011;37845;53.196;5.638;2023-02-28T08:30:32;28.75;;;18.10;;
51782;SDS011;37845;53.196;5.638;2023-02-28T08:32:57;35.17;;;19.92;;
51782;SDS011;37845;53.196;5.638;2023-02-28T08:35:23;35.60;;;20.23;;
51782;SDS011;37845;53.196;5.638;2023-02-28T08:37:49;37.05;;;19.33;;
51782;SDS011;37845;53.196;5.638;2023-02-28T08:40:15;35.78;;;22.60;;
51782;SDS011;37845;53.196;5.638;2023-02-28T08:42:47;34.22;;;19.38;;
51782;SDS011;37845;53.196;5.638;2023-02-28T08:45:14;30.65;;;18.63;;
51782;SDS011;37845;53.196;5.638;2023-02-28T08:47:40;40.67;;;20.02;;
51782;SDS011;37845;53.196;5.638;2023-02-28T08:50:06;32.38;;;16.77;;
51782;SDS011;37845;53.196;5.638;2023-02-28T08:52:33;35.53;;;19.65;;
51782;SDS011;37845;53.196;5.638;2023-02-28T08:54:58;35.35;;;20.00;;
51782;SDS011;37845;53.196;5.638;2023-02-28T08:57:24;34.25;;;19.98;;
51782;SDS011;37845;53.196;5.638;2023-02-28T08:59:53;42.22;;;21.13;;
51782;SDS011;37845;53.196;5.638;2023-02-28T09:02:19;38.25;;;19.83;;
51782;SDS011;37845;53.196;5.638;2023-02-28T09:04:45;30.75;;;18.48;;
51782;SDS011;37845;53.196;5.638;2023-02-28T09:07:11;35.65;;;18.58;;
51782;SDS011;37845;53.196;5.638;2023-02-28T09:09:37;37.78;;;19.58;;
51782;SDS011;37845;53.196;5.638;2023-02-28T09:12:03;38.53;;;20.13;;
51782;SDS011;37845;53.196;5.638;2023-02-28T09:14:30;33.80;;;20.67;;
51782;SDS011;37845;53.196;5.638;2023-02-28T09:16:56;42.40;;;21.77;;
51782;SDS011;37845;53.196;5.638;2023-02-28T09:19:21;42.88;;;21.08;;
51782;SDS011;37845;53.196;5.638;2023-02-28T09:21:47;46.95;;;20.80;;
51782;SDS011;37845;53.196;5.638;2023-02-28T09:24:13;42.60;;;21.65;;
51782;SDS011;37845;53.196;5.638;2023-02-28T09:26:40;37.40;;;21.80;;
51782;SDS011;37845;53.196;5.638;2023-02-28T09:29:05;40.95;;;21.20;;
51782;SDS011;37845;53.196;5.638;2023-02-28T09:31:32;39.42;;;24.52;;
51782;SDS011;37845;53.196;5.638;2023-02-28T09:36:25;48.45;;;23.50;;
51782;SDS011;37845;53.196;5.638;2023-02-28T09:38:51;45.13;;;22.10;;
51782;SDS011;37845;53.196;5.638;2023-02-28T09:43:56;39.85;;;21.75;;
51782;SDS011;37845;53.196;5.638;2023-02-28T09:46:29;37.17;;;20.48;;
51782;SDS011;37845;53.196;5.638;2023-02-28T09:49:05;40.45;;;21.65;;
51782;SDS011;37845;53.196;5.638;2023-02-28T09:54:05;36.33;;;20.10;;
51782;SDS011;37845;53.196;5.638;2023-02-28T09:59:18;30.52;;;17.35;;
51782;SDS011;37845;53.196;5.638;2023-02-28T10:05:11;36.58;;;19.05;;
51782;SDS011;37845;53.196;5.638;2023-02-28T10:13:13;33.50;;;17.88;;
51782;SDS011;37845;53.196;5.638;2023-02-28T10:16:01;32.83;;;16.98;;
51782;SDS011;37845;53.196;5.638;2023-02-28T10:18:48;32.80;;;17.88;;
51782;SDS011;37845;53.196;5.638;2023-02-28T10:21:21;31.55;;;17.63;;
51782;SDS011;37845;53.196;5.638;2023-02-28T10:24:18;27.83;;;13.95;;
51782;SDS011;37845;53.196;5.638;2023-02-28T10:26:45;32.63;;;16.23;;
51782;SDS011;37845;53.196;5.638;2023-02-28T10:29:13;35.55;;;15.73;;
51782;SDS011;37845;53.196;5.638;2023-02-28T10:31:39;29.88;;;16.45;;
51782;SDS011;37845;53.196;5.638;2023-02-28T10:34:06;26.50;;;15.02;;
51782;SDS011;37845;53.196;5.638;2023-02-28T10:36:32;24.33;;;15.35;;
51782;SDS011;37845;53.196;5.638;2023-02-28T10:39:01;30.92;;;16.15;;
51782;SDS011;37845;53.196;5.638;2023-02-28T10:42:01;30.55;;;16.35;;
51782;SDS011;37845;53.196;5.638;2023-02-28T10:44:27;30.83;;;15.18;;
51782;SDS011;37845;53.196;5.638;2023-02-28T10:46:53;29.80;;;17.63;;
51782;SDS011;37845;53.196;5.638;2023-02-28T10:51:53;37.55;;;16.52;;
51782;SDS011;37845;53.196;5.638;2023-02-28T10:54:23;28.95;;;14.48;;
51782;SDS011;37845;53.196;5.638;2023-02-28T11:02:47;22.55;;;13.68;;
51782;SDS011;37845;53.196;5.638;2023-02-28T11:05:35;26.33;;;13.63;;
51782;SDS011;37845;53.196;5.638;2023-02-28T11:08:16;24.23;;;13.23;;
51782;SDS011;37845;53.196;5.638;2023-02-28T11:10:45;25.25;;;13.23;;
51782;SDS011;37845;53.196;5.638;2023-02-28T11:13:19;23.67;;;12.23;;
51782;SDS011;37845;53.196;5.638;2023-02-28T11:15:55;31.25;;;14.02;;
51782;SDS011;37845;53.196;5.638;2023-02-28T11:18:46;25.15;;;14.18;;
51782;SDS011;37845;53.196;5.638;2023-02-28T11:21:18;20.08;;;11.45;;
51782;SDS011;37845;53.196;5.638;2023-02-28T11:24:45;24.63;;;12.40;;
51782;SDS011;37845;53.196;5.638;2023-02-28T11:26:48;23.80;;;11.15;;
51782;SDS011;37845;53.196;5.638;2023-02-28T11:34:35;13.43;;;9.73;;
51782;SDS011;37845;53.196;5.638;2023-02-28T11:37:03;19.05;;;9.50;;
51782;SDS011;37845;53.196;5.638;2023-02-28T11:39:34;12.70;;;7.90;;
51782;SDS011;37845;53.196;5.638;2023-02-28T11:52:38;18.35;;;7.82;;
51782;SDS011;37845;53.196;5.638;2023-02-28T12:01:02;19.42;;;8.55;;
51782;SDS011;37845;53.196;5.638;2023-02-28T12:04:22;16.00;;;7.32;;
51782;SDS011;37845;53.196;5.638;2023-02-28T12:06:57;12.93;;;7.95;;
51782;SDS011;37845;53.196;5.638;2023-02-28T12:20:22;15.82;;;10.18;;
51782;SDS011;37845;53.196;5.638;2023-02-28T12:22:55;18.10;;;9.82;;
51782;SDS011;37845;53.196;5.638;2023-02-28T12:28:49;14.75;;;9.93;;
51782;SDS011;37845;53.196;5.638;2023-02-28T12:31:20;18.48;;;9.68;;
51782;SDS011;37845;53.196;5.638;2023-02-28T12:33:53;16.85;;;9.68;;
51782;SDS011;37845;53.196;5.638;2023-02-28T12:36:36;16.95;;;10.18;;
51782;SDS011;37845;53.196;5.638;2023-02-28T12:41:56;18.27;;;9.93;;
51782;SDS011;37845;53.196;5.638;2023-02-28T12:44:30;15.60;;;9.48;;
51782;SDS011;37845;53.196;5.638;2023-02-28T12:47:15;17.70;;;9.00;;
51782;SDS011;37845;53.196;5.638;2023-02-28T12:52:47;21.95;;;10.25;;
51782;SDS011;37845;53.196;5.638;2023-02-28T12:58:49;19.90;;;8.98;;
51782;SDS011;37845;53.196;5.638;2023-02-28T13:07:31;17.95;;;10.15;;
51782;SDS011;37845;53.196;5.638;2023-02-28T13:09:33;20.65;;;9.63;;
51782;SDS011;37845;53.196;5.638;2023-02-28T13:11:59;21.00;;;9.25;;
51782;SDS011;37845;53.196;5.638;2023-02-28T13:14:28;23.52;;;10.13;;
51782;SDS011;37845;53.196;5.638;2023-02-28T13:19:34;18.90;;;10.07;;
51782;SDS011;37845;53.196;5.638;2023-02-28T13:22:02;15.85;;;8.98;;
51782;SDS011;37845;53.196;5.638;2023-02-28T13:24:39;20.52;;;10.02;;
51782;SDS011;37845;53.196;5.638;2023-02-28T13:29:34;14.40;;;9.38;;
51782;SDS011;37845;53.196;5.638;2023-02-28T13:34:33;20.13;;;9.32;;
51782;SDS011;37845;53.196;5.638;2023-02-28T13:39:51;21.58;;;11.73;;
51782;SDS011;37845;53.196;5.638;2023-02-28T14:18:03;18.05;;;8.35;;
51782;SDS011;37845;53.196;5.638;2023-02-28T14:20:39;17.40;;;9.20;;
51782;SDS011;37845;53.196;5.638;2023-02-28T14:25:49;17.73;;;8.98;;
51782;SDS011;37845;53.196;5.638;2023-02-28T14:31:29;11.48;;;9.02;;
51782;SDS011;37845;53.196;5.638;2023-02-28T14:34:10;14.90;;;8.83;;
51782;SDS011;37845;53.196;5.638;2023-02-28T14:36:49;14.35;;;8.35;;
51782;SDS011;37845;53.196;5.638;2023-02-28T14:39:24;24.25;;;10.40;;
51782;SDS011;37845;53.196;5.638;2023-02-28T14:41:51;18.52;;;10.20;;
51782;SDS011;37845;53.196;5.638;2023-02-28T14:46:43;24.80;;;10.60;;
51782;SDS011;37845;53.196;5.638;2023-02-28T14:49:17;16.95;;;10.35;;
51782;SDS011;37845;53.196;5.638;2023-02-28T14:51:47;15.38;;;8.95;;
51782;SDS011;37845;53.196;5.638;2023-02-28T14:54:16;17.48;;;10.10;;
51782;SDS011;37845;53.196;5.638;2023-02-28T14:56:48;22.45;;;11.90;;
51782;SDS011;37845;53.196;5.638;2023-02-28T14:59:22;19.17;;;10.27;;
51782;SDS011;37845;53.196;5.638;2023-02-28T15:01:50;16.50;;;9.45;;
51782;SDS011;37845;53.196;5.638;2023-02-28T15:04:20;13.52;;;9.60;;
51782;SDS011;37845;53.196;5.638;2023-02-28T15:09:39;16.35;;;10.00;;
51782;SDS011;37845;53.196;5.638;2023-02-28T15:12:05;19.15;;;11.27;;
51782;SDS011;37845;53.196;5.638;2023-02-28T15:14:32;17.05;;;9.48;;
51782;SDS011;37845;53.196;5.638;2023-02-28T15:17:05;14.10;;;9.18;;
51782;SDS011;37845;53.196;5.638;2023-02-28T15:19:37;16.90;;;9.98;;
51782;SDS011;37845;53.196;5.638;2023-02-28T15:22:08;14.60;;;9.73;;
51782;SDS011;37845;53.196;5.638;2023-02-28T15:24:44;14.50;;;10.05;;
51782;SDS011;37845;53.196;5.638;2023-02-28T15:27:21;16.65;;;11.10;;
51782;SDS011;37845;53.196;5.638;2023-02-28T15:29:51;21.13;;;11.40;;
51782;SDS011;37845;53.196;5.638;2023-02-28T15:32:23;18.27;;;10.15;;
51782;SDS011;37845;53.196;5.638;2023-02-28T15:37:46;16.17;;;10.32;;
51782;SDS011;37845;53.196;5.638;2023-02-28T15:40:27;18.77;;;9.82;;
51782;SDS011;37845;53.196;5.638;2023-02-28T15:45:55;15.75;;;9.68;;
51782;SDS011;37845;53.196;5.638;2023-02-28T15:48:33;16.45;;;11.18;;
51782;SDS011;37845;53.196;5.638;2023-02-28T15:53:49;22.90;;;9.63;;
51782;SDS011;37845;53.196;5.638;2023-02-28T15:56:31;15.65;;;9.95;;
51782;SDS011;37845;53.196;5.638;2023-02-28T15:59:08;20.40;;;11.68;;
51782;SDS011;37845;53.196;5.638;2023-02-28T16:01:42;17.65;;;9.93;;
51782;SDS011;37845;53.196;5.638;2023-02-28T16:04:15;19.60;;;10.75;;
51782;SDS011;37845;53.196;5.638;2023-02-28T16:09:17;22.08;;;10.40;;
51782;SDS011;37845;53.196;5.638;2023-02-28T16:11:44;17.30;;;9.70;;
51782;SDS011;37845;53.196;5.638;2023-02-28T16:14:14;17.15;;;10.65;;
51782;SDS011;37845;53.196;5.638;2023-02-28T16:16:53;20.15;;;11.38;;
51782;SDS011;37845;53.196;5.638;2023-02-28T16:19:21;19.30;;;10.18;;
51782;SDS011;37845;53.196;5.638;2023-02-28T16:21:48;23.45;;;12.02;;
51782;SDS011;37845;53.196;5.638;2023-02-28T16:24:16;26.33;;;13.55;;
51782;SDS011;37845;53.196;5.638;2023-02-28T16:26:44;16.90;;;12.15;;
51782;SDS011;37845;53.196;5.638;2023-02-28T16:29:19;21.27;;;10.98;;
51782;SDS011;37845;53.196;5.638;2023-02-28T16:31:49;16.48;;;11.20;;
51782;SDS011;37845;53.196;5.638;2023-02-28T16:36:41;17.52;;;10.20;;
51782;SDS011;37845;53.196;5.638;2023-02-28T16:39:07;17.02;;;11.82;;
51782;SDS011;37845;53.196;5.638;2023-02-28T16:41:32;16.55;;;10.25;;
51782;SDS011;37845;53.196;5.638;2023-02-28T16:43:59;18.95;;;11.20;;
51782;SDS011;37845;53.196;5.638;2023-02-28T16:48:59;19.50;;;12.38;;
51782;SDS011;37845;53.196;5.638;2023-02-28T16:51:25;17.65;;;11.23;;
51782;SDS011;37845;53.196;5.638;2023-02-28T16:53:50;24.75;;;12.57;;
51782;SDS011;37845;53.196;5.638;2023-02-28T16:56:21;38.75;;;13.95;;
51782;SDS011;37845;53.196;5.638;2023-02-28T16:58:49;17.05;;;11.30;;
51782;SDS011;37845;53.196;5.638;2023-02-28T17:01:16;19.77;;;12.82;;
51782;SDS011;37845;53.196;5.638;2023-02-28T17:03:47;21.90;;;13.00;;
51782;SDS011;37845;53.196;5.638;2023-02-28T17:06:22;19.17;;;11.38;;
51782;SDS011;37845;53.196;5.638;2023-02-28T17:11:16;21.23;;;13.02;;
51782;SDS011;37845;53.196;5.638;2023-02-28T17:13:43;25.38;;;12.75;;
51782;SDS011;37845;53.196;5.638;2023-02-28T17:16:30;25.55;;;16.10;;
51782;SDS011;37845;53.196;5.638;2023-02-28T17:19:00;25.00;;;14.23;;
51782;SDS011;37845;53.196;5.638;2023-02-28T17:21:28;22.35;;;13.68;;
51782;SDS011;37845;53.196;5.638;2023-02-28T17:23:55;17.25;;;10.93;;
51782;SDS011;37845;53.196;5.638;2023-02-28T17:26:21;18.20;;;11.68;;
51782;SDS011;37845;53.196;5.638;2023-02-28T17:28:50;22.13;;;11.13;;
51782;SDS011;37845;53.196;5.638;2023-02-28T17:31:17;26.08;;;12.82;;
51782;SDS011;37845;53.196;5.638;2023-02-28T17:33:43;22.38;;;13.20;;
51782;SDS011;37845;53.196;5.638;2023-02-28T17:36:20;23.50;;;13.38;;
51782;SDS011;37845;53.196;5.638;2023-02-28T17:38:50;19.95;;;10.73;;
51782;SDS011;37845;53.196;5.638;2023-02-28T17:41:42;18.20;;;11.80;;
51782;SDS011;37845;53.196;5.638;2023-02-28T17:44:14;22.13;;;11.52;;
51782;SDS011;37845;53.196;5.638;2023-02-28T17:46:42;20.00;;;12.13;;
51782;SDS011;37845;53.196;5.638;2023-02-28T17:49:23;21.35;;;11.93;;
51782;SDS011;37845;53.196;5.638;2023-02-28T17:54:57;25.80;;;13.15;;
51782;SDS011;37845;53.196;5.638;2023-02-28T17:57:23;19.10;;;11.90;;
51782;SDS011;37845;53.196;5.638;2023-02-28T17:59:51;21.98;;;12.93;;
51782;SDS011;37845;53.196;5.638;2023-02-28T18:02:20;27.50;;;11.50;;
51782;SDS011;37845;53.196;5.638;2023-02-28T18:04:46;28.45;;;11.10;;
51782;SDS011;37845;53.196;5.638;2023-02-28T18:07:12;21.02;;;12.77;;
51782;SDS011;37845;53.196;5.638;2023-02-28T18:09:37;18.55;;;11.85;;
51782;SDS011;37845;53.196;5.638;2023-02-28T18:12:03;23.55;;;12.55;;
51782;SDS011;37845;53.196;5.638;2023-02-28T18:14:29;24.23;;;11.98;;
51782;SDS011;37845;53.196;5.638;2023-02-28T18:16:55;22.73;;;13.52;;